sensor_id;sensor_type;location;lat;lon;timestamp;P1;durP1;ratioP1;P2;durP2;ratioP2
3022;SDS011;1521;53.584;9.938;2023-06-19T00:01:18;10.87;;;7.90;;
3022;SDS011;1521;53.584;9.938;2023-06-19T00:03:43;11.57;;;7.67;;
3022;SDS011;1521;53.584;9.938;2023-06-19T00:06:09;9.37;;;7.43;;
3022;SDS011;1521;53.584;9.938;2023-06-19T00:08:37;9.57;;;7.43;;
3022;SDS011;1521;53.584;9.938;2023-06-19T00:11:03;8.30;;;7.50;;
3022;SDS011;1521;53.584;9.938;2023-06-19T00:13:28;8.90;;;7.60;;
3022;SDS011;1521;53.584;9.938;2023-06-19T00:15:54;8.90;;;8.00;;
3022;SDS011;1521;53.584;9.938;2023-06-19T00:18:20;9.00;;;7.37;;
3022;SDS011;1521;53.584;9.938;2023-06-19T00:20:45;8.20;;;7.40;;
3022;SDS011;1521;53.584;9.938;2023-06-19T00:23:11;7.97;;;7.27;;
3022;SDS011;1521;53.584;9.938;2023-06-19T00:25:42;8.60;;;7.73;;
3022;SDS011;1521;53.584;9.938;2023-06-19T00:28:09;10.70;;;8.00;;
3022;SDS011;1521;53.584;9.938;2023-06-19T00:30:36;8.60;;;7.30;;
3022;SDS011;1521;53.584;9.938;2023-06-19T00:33:02;9.33;;;8.20;;
3022;SDS011;1521;53.584;9.938;2023-06-19T00:35:28;8.70;;;7.47;;
3022;SDS011;1521;53.584;9.938;2023-06-19T00:37:54;9.87;;;8.70;;
3022;SDS011;1521;53.584;9.938;2023-06-19T00:40:24;9.00;;;7.57;;
3022;SDS011;1521;53.584;9.938;2023-06-19T00:42:53;13.90;;;8.60;;
3022;SDS011;1521;53.584;9.938;2023-06-19T00:45:19;8.97;;;8.07;;
3022;SDS011;1521;53.584;9.938;2023-06-19T00:47:45;8.47;;;7.67;;
3022;SDS011;1521;53.584;9.938;2023-06-19T00:50:10;10.57;;;8.10;;
3022;SDS011;1521;53.584;9.938;2023-06-19T00:52:37;10.80;;;8.30;;
3022;SDS011;1521;53.584;9.938;2023-06-19T00:55:03;9.07;;;7.63;;
3022;SDS011;1521;53.584;9.938;2023-06-19T00:57:30;8.27;;;7.37;;
3022;SDS011;1521;53.584;9.938;2023-06-19T00:59:56;8.80;;;8.00;;
3022;SDS011;1521;53.584;9.938;2023-06-19T01:02:22;9.87;;;8.10;;
3022;SDS011;1521;53.584;9.938;2023-06-19T01:04:48;9.30;;;8.30;;
3022;SDS011;1521;53.584;9.938;2023-06-19T01:07:16;9.70;;;8.40;;
3022;SDS011;1521;53.584;9.938;2023-06-19T01:09:53;10.53;;;8.63;;
3022;SDS011;1521;53.584;9.938;2023-06-19T01:12:33;11.53;;;8.63;;
3022;SDS011;1521;53.584;9.938;2023-06-19T01:15:04;9.47;;;8.03;;
3022;SDS011;1521;53.584;9.938;2023-06-19T01:17:30;10.00;;;8.93;;
3022;SDS011;1521;53.584;9.938;2023-06-19T01:19:57;13.43;;;8.73;;
3022;SDS011;1521;53.584;9.938;2023-06-19T01:22:25;11.63;;;9.00;;
3022;SDS011;1521;53.584;9.938;2023-06-19T01:24:53;9.13;;;8.23;;
3022;SDS011;1521;53.584;9.938;2023-06-19T01:27:19;9.63;;;8.70;;
3022;SDS011;1521;53.584;9.938;2023-06-19T01:29:45;11.83;;;8.40;;
3022;SDS011;1521;53.584;9.938;2023-06-19T01:32:13;8.97;;;8.10;;
3022;SDS011;1521;53.584;9.938;2023-06-19T01:34:44;8.70;;;7.80;;
3022;SDS011;1521;53.584;9.938;2023-06-19T01:37:11;9.57;;;8.67;;
3022;SDS011;1521;53.584;9.938;2023-06-19T01:39:37;9.93;;;8.93;;
3022;SDS011;1521;53.584;9.938;2023-06-19T01:42:05;9.60;;;8.53;;
3022;SDS011;1521;53.584;9.938;2023-06-19T01:44:34;9.63;;;8.73;;
3022;SDS011;1521;53.584;9.938;2023-06-19T01:47:06;10.10;;;8.70;;
3022;SDS011;1521;53.584;9.938;2023-06-19T01:49:36;9.97;;;8.87;;
3022;SDS011;1521;53.584;9.938;2023-06-19T01:52:02;10.37;;;8.83;;
3022;SDS011;1521;53.584;9.938;2023-06-19T01:54:28;10.03;;;9.00;;
3022;SDS011;1521;53.584;9.938;2023-06-19T01:56:54;9.73;;;8.80;;
3022;SDS011;1521;53.584;9.938;2023-06-19T01:59:20;10.10;;;9.07;;
3022;SDS011;1521;53.584;9.938;2023-06-19T02:01:46;9.00;;;8.10;;
3022;SDS011;1521;53.584;9.938;2023-06-19T02:04:11;10.17;;;9.10;;
3022;SDS011;1521;53.584;9.938;2023-06-19T02:06:37;9.90;;;9.00;;
3022;SDS011;1521;53.584;9.938;2023-06-19T02:09:02;10.77;;;9.60;;
3022;SDS011;1521;53.584;9.938;2023-06-19T02:11:28;10.53;;;9.00;;
3022;SDS011;1521;53.584;9.938;2023-06-19T02:13:54;10.83;;;9.77;;
3022;SDS011;1521;53.584;9.938;2023-06-19T02:16:19;9.43;;;8.43;;
3022;SDS011;1521;53.584;9.938;2023-06-19T02:18:45;12.73;;;9.40;;
3022;SDS011;1521;53.584;9.938;2023-06-19T02:21:11;11.57;;;9.87;;
3022;SDS011;1521;53.584;9.938;2023-06-19T02:23:36;10.73;;;9.63;;
3022;SDS011;1521;53.584;9.938;2023-06-19T02:26:02;10.77;;;9.77;;
3022;SDS011;1521;53.584;9.938;2023-06-19T02:28:28;13.83;;;9.70;;
3022;SDS011;1521;53.584;9.938;2023-06-19T02:30:53;12.63;;;9.67;;
3022;SDS011;1521;53.584;9.938;2023-06-19T02:33:19;11.60;;;9.80;;
3022;SDS011;1521;53.584;9.938;2023-06-19T02:35:45;10.17;;;9.27;;
3022;SDS011;1521;53.584;9.938;2023-06-19T02:38:10;11.50;;;9.03;;
3022;SDS011;1521;53.584;9.938;2023-06-19T02:40:39;10.70;;;9.70;;
3022;SDS011;1521;53.584;9.938;2023-06-19T02:43:05;10.73;;;9.63;;
3022;SDS011;1521;53.584;9.938;2023-06-19T02:45:31;11.93;;;10.67;;
3022;SDS011;1521;53.584;9.938;2023-06-19T02:47:56;11.03;;;9.40;;
3022;SDS011;1521;53.584;9.938;2023-06-19T02:50:22;11.63;;;10.47;;
3022;SDS011;1521;53.584;9.938;2023-06-19T02:52:48;11.30;;;9.90;;
3022;SDS011;1521;53.584;9.938;2023-06-19T02:55:13;13.17;;;10.60;;
3022;SDS011;1521;53.584;9.938;2023-06-19T02:57:39;12.30;;;9.20;;
3022;SDS011;1521;53.584;9.938;2023-06-19T03:00:04;13.77;;;10.70;;
3022;SDS011;1521;53.584;9.938;2023-06-19T03:02:31;11.90;;;10.63;;
3022;SDS011;1521;53.584;9.938;2023-06-19T03:04:57;11.77;;;10.57;;
3022;SDS011;1521;53.584;9.938;2023-06-19T03:07:22;11.60;;;9.90;;
3022;SDS011;1521;53.584;9.938;2023-06-19T03:09:50;11.77;;;10.60;;
3022;SDS011;1521;53.584;9.938;2023-06-19T03:12:15;11.73;;;10.63;;
3022;SDS011;1521;53.584;9.938;2023-06-19T03:14:41;11.43;;;10.00;;
3022;SDS011;1521;53.584;9.938;2023-06-19T03:17:06;11.03;;;9.93;;
3022;SDS011;1521;53.584;9.938;2023-06-19T03:19:32;12.63;;;11.33;;
3022;SDS011;1521;53.584;9.938;2023-06-19T03:21:57;10.90;;;9.43;;
3022;SDS011;1521;53.584;9.938;2023-06-19T03:24:23;14.73;;;10.77;;
3022;SDS011;1521;53.584;9.938;2023-06-19T03:26:49;11.77;;;10.57;;
3022;SDS011;1521;53.584;9.938;2023-06-19T03:29:14;11.10;;;10.07;;
3022;SDS011;1521;53.584;9.938;2023-06-19T03:31:40;13.10;;;10.70;;
3022;SDS011;1521;53.584;9.938;2023-06-19T03:34:05;15.37;;;11.13;;
3022;SDS011;1521;53.584;9.938;2023-06-19T03:36:31;11.37;;;10.27;;
3022;SDS011;1521;53.584;9.938;2023-06-19T03:38:57;15.13;;;10.70;;
3022;SDS011;1521;53.584;9.938;2023-06-19T03:41:22;13.60;;;12.10;;
3022;SDS011;1521;53.584;9.938;2023-06-19T03:43:48;12.07;;;10.87;;
3022;SDS011;1521;53.584;9.938;2023-06-19T03:46:14;11.13;;;9.97;;
3022;SDS011;1521;53.584;9.938;2023-06-19T03:48:39;14.37;;;11.00;;
3022;SDS011;1521;53.584;9.938;2023-06-19T03:51:05;11.97;;;10.77;;
3022;SDS011;1521;53.584;9.938;2023-06-19T03:53:30;13.17;;;10.60;;
3022;SDS011;1521;53.584;9.938;2023-06-19T03:55:56;11.60;;;10.43;;
3022;SDS011;1521;53.584;9.938;2023-06-19T03:58:22;17.10;;;10.63;;
3022;SDS011;1521;53.584;9.938;2023-06-19T04:00:47;12.43;;;11.20;;
3022;SDS011;1521;53.584;9.938;2023-06-19T04:03:13;12.87;;;10.67;;
3022;SDS011;1521;53.584;9.938;2023-06-19T04:05:38;12.83;;;11.00;;
3022;SDS011;1521;53.584;9.938;2023-06-19T04:08:06;11.80;;;10.60;;
3022;SDS011;1521;53.584;9.938;2023-06-19T04:10:32;13.23;;;10.90;;
3022;SDS011;1521;53.584;9.938;2023-06-19T04:12:57;13.10;;;11.30;;
3022;SDS011;1521;53.584;9.938;2023-06-19T04:15:23;12.33;;;10.97;;
3022;SDS011;1521;53.584;9.938;2023-06-19T04:17:49;12.10;;;10.93;;
3022;SDS011;1521;53.584;9.938;2023-06-19T04:20:14;13.37;;;11.10;;
3022;SDS011;1521;53.584;9.938;2023-06-19T04:22:40;12.33;;;11.03;;
3022;SDS011;1521;53.584;9.938;2023-06-19T04:25:06;12.30;;;11.00;;
3022;SDS011;1521;53.584;9.938;2023-06-19T04:27:33;13.23;;;11.83;;
3022;SDS011;1521;53.584;9.938;2023-06-19T04:29:59;12.83;;;11.53;;
3022;SDS011;1521;53.584;9.938;2023-06-19T04:32:25;13.93;;;11.20;;
3022;SDS011;1521;53.584;9.938;2023-06-19T04:34:51;12.17;;;10.90;;
3022;SDS011;1521;53.584;9.938;2023-06-19T04:37:16;15.47;;;11.20;;
3022;SDS011;1521;53.584;9.938;2023-06-19T04:39:44;13.60;;;10.90;;
3022;SDS011;1521;53.584;9.938;2023-06-19T04:42:13;13.00;;;11.70;;
3022;SDS011;1521;53.584;9.938;2023-06-19T04:44:46;12.93;;;11.47;;
3022;SDS011;1521;53.584;9.938;2023-06-19T04:47:12;19.30;;;11.93;;
3022;SDS011;1521;53.584;9.938;2023-06-19T04:49:38;14.73;;;11.83;;
3022;SDS011;1521;53.584;9.938;2023-06-19T04:52:03;13.70;;;12.40;;
3022;SDS011;1521;53.584;9.938;2023-06-19T04:54:29;12.97;;;11.67;;
3022;SDS011;1521;53.584;9.938;2023-06-19T04:56:57;16.40;;;11.87;;
3022;SDS011;1521;53.584;9.938;2023-06-19T04:59:23;15.03;;;12.33;;
3022;SDS011;1521;53.584;9.938;2023-06-19T05:01:48;13.60;;;11.90;;
3022;SDS011;1521;53.584;9.938;2023-06-19T05:04:14;12.97;;;11.67;;
3022;SDS011;1521;53.584;9.938;2023-06-19T05:06:40;13.07;;;11.60;;
3022;SDS011;1521;53.584;9.938;2023-06-19T05:09:05;16.27;;;12.10;;
3022;SDS011;1521;53.584;9.938;2023-06-19T05:11:31;13.03;;;11.70;;
3022;SDS011;1521;53.584;9.938;2023-06-19T05:13:57;15.27;;;11.97;;
3022;SDS011;1521;53.584;9.938;2023-06-19T05:16:23;14.17;;;11.63;;
3022;SDS011;1521;53.584;9.938;2023-06-19T05:18:49;13.73;;;12.30;;
3022;SDS011;1521;53.584;9.938;2023-06-19T05:21:16;14.23;;;12.10;;
3022;SDS011;1521;53.584;9.938;2023-06-19T05:23:42;13.57;;;11.80;;
3022;SDS011;1521;53.584;9.938;2023-06-19T05:26:07;13.00;;;11.70;;
3022;SDS011;1521;53.584;9.938;2023-06-19T05:28:33;13.23;;;11.83;;
3022;SDS011;1521;53.584;9.938;2023-06-19T05:30:59;15.43;;;11.30;;
3022;SDS011;1521;53.584;9.938;2023-06-19T05:33:25;16.50;;;11.40;;
3022;SDS011;1521;53.584;9.938;2023-06-19T05:35:50;12.47;;;11.27;;
3022;SDS011;1521;53.584;9.938;2023-06-19T05:38:18;13.50;;;12.10;;
3022;SDS011;1521;53.584;9.938;2023-06-19T05:40:44;14.03;;;11.13;;
3022;SDS011;1521;53.584;9.938;2023-06-19T05:43:10;15.67;;;11.70;;
3022;SDS011;1521;53.584;9.938;2023-06-19T05:45:35;12.73;;;11.43;;
3022;SDS011;1521;53.584;9.938;2023-06-19T05:48:01;14.63;;;11.63;;
3022;SDS011;1521;53.584;9.938;2023-06-19T05:50:27;14.70;;;11.97;;
3022;SDS011;1521;53.584;9.938;2023-06-19T05:52:52;13.37;;;12.00;;
3022;SDS011;1521;53.584;9.938;2023-06-19T05:55:18;14.60;;;11.97;;
3022;SDS011;1521;53.584;9.938;2023-06-19T05:57:43;14.40;;;12.03;;
3022;SDS011;1521;53.584;9.938;2023-06-19T06:00:09;14.97;;;12.77;;
3022;SDS011;1521;53.584;9.938;2023-06-19T06:02:41;17.27;;;12.03;;
3022;SDS011;1521;53.584;9.938;2023-06-19T06:05:07;15.27;;;12.27;;
3022;SDS011;1521;53.584;9.938;2023-06-19T06:07:33;15.83;;;12.10;;
3022;SDS011;1521;53.584;9.938;2023-06-19T06:09:59;14.03;;;12.47;;
3022;SDS011;1521;53.584;9.938;2023-06-19T06:12:25;17.93;;;12.40;;
3022;SDS011;1521;53.584;9.938;2023-06-19T06:14:51;25.30;;;13.27;;
3022;SDS011;1521;53.584;9.938;2023-06-19T06:17:16;16.87;;;13.03;;
3022;SDS011;1521;53.584;9.938;2023-06-19T06:19:42;14.70;;;12.50;;
3022;SDS011;1521;53.584;9.938;2023-06-19T06:22:07;15.50;;;14.00;;
3022;SDS011;1521;53.584;9.938;2023-06-19T06:24:33;19.13;;;14.20;;
3022;SDS011;1521;53.584;9.938;2023-06-19T06:26:58;16.40;;;14.13;;
3022;SDS011;1521;53.584;9.938;2023-06-19T06:29:24;17.10;;;14.20;;
3022;SDS011;1521;53.584;9.938;2023-06-19T06:31:50;15.40;;;13.90;;
3022;SDS011;1521;53.584;9.938;2023-06-19T06:34:17;16.13;;;14.13;;
3022;SDS011;1521;53.584;9.938;2023-06-19T06:36:44;21.60;;;13.10;;
3022;SDS011;1521;53.584;9.938;2023-06-19T06:39:10;15.20;;;13.60;;
3022;SDS011;1521;53.584;9.938;2023-06-19T06:41:36;15.20;;;13.60;;
3022;SDS011;1521;53.584;9.938;2023-06-19T06:44:02;24.00;;;12.90;;
3022;SDS011;1521;53.584;9.938;2023-06-19T06:46:27;21.83;;;14.30;;
3022;SDS011;1521;53.584;9.938;2023-06-19T06:48:53;18.10;;;13.87;;
3022;SDS011;1521;53.584;9.938;2023-06-19T06:51:19;16.83;;;14.30;;
3022;SDS011;1521;53.584;9.938;2023-06-19T06:53:44;16.03;;;14.27;;
3022;SDS011;1521;53.584;9.938;2023-06-19T06:56:10;16.93;;;15.23;;
3022;SDS011;1521;53.584;9.938;2023-06-19T06:58:36;15.50;;;13.87;;
3022;SDS011;1521;53.584;9.938;2023-06-19T07:01:01;17.50;;;14.40;;
3022;SDS011;1521;53.584;9.938;2023-06-19T07:03:27;15.00;;;13.40;;
3022;SDS011;1521;53.584;9.938;2023-06-19T07:05:56;19.90;;;15.30;;
3022;SDS011;1521;53.584;9.938;2023-06-19T07:08:22;14.77;;;13.20;;
3022;SDS011;1521;53.584;9.938;2023-06-19T07:10:47;16.00;;;13.50;;
3022;SDS011;1521;53.584;9.938;2023-06-19T07:13:13;17.80;;;14.83;;
3022;SDS011;1521;53.584;9.938;2023-06-19T07:15:38;14.97;;;13.47;;
3022;SDS011;1521;53.584;9.938;2023-06-19T07:18:04;19.03;;;14.73;;
3022;SDS011;1521;53.584;9.938;2023-06-19T07:20:30;14.53;;;12.93;;
3022;SDS011;1521;53.584;9.938;2023-06-19T07:22:55;18.77;;;14.83;;
3022;SDS011;1521;53.584;9.938;2023-06-19T07:25:22;16.63;;;14.80;;
3022;SDS011;1521;53.584;9.938;2023-06-19T07:27:50;18.37;;;14.83;;
3022;SDS011;1521;53.584;9.938;2023-06-19T07:30:16;15.43;;;13.83;;
3022;SDS011;1521;53.584;9.938;2023-06-19T07:32:42;17.40;;;15.47;;
3022;SDS011;1521;53.584;9.938;2023-06-19T07:35:07;16.97;;;15.03;;
3022;SDS011;1521;53.584;9.938;2023-06-19T07:37:33;19.40;;;15.00;;
3022;SDS011;1521;53.584;9.938;2023-06-19T07:39:59;19.37;;;14.70;;
3022;SDS011;1521;53.584;9.938;2023-06-19T07:42:25;22.00;;;15.70;;
3022;SDS011;1521;53.584;9.938;2023-06-19T07:44:51;15.60;;;13.97;;
3022;SDS011;1521;53.584;9.938;2023-06-19T07:47:17;18.50;;;14.03;;
3022;SDS011;1521;53.584;9.938;2023-06-19T07:49:43;17.67;;;13.90;;
3022;SDS011;1521;53.584;9.938;2023-06-19T07:52:10;19.70;;;14.60;;
3022;SDS011;1521;53.584;9.938;2023-06-19T07:54:35;15.33;;;13.73;;
3022;SDS011;1521;53.584;9.938;2023-06-19T07:57:01;15.37;;;13.83;;
3022;SDS011;1521;53.584;9.938;2023-06-19T07:59:27;14.90;;;13.30;;
3022;SDS011;1521;53.584;9.938;2023-06-19T08:01:53;14.33;;;12.83;;
3022;SDS011;1521;53.584;9.938;2023-06-19T08:04:18;15.40;;;13.37;;
3022;SDS011;1521;53.584;9.938;2023-06-19T08:06:44;15.20;;;13.60;;
3022;SDS011;1521;53.584;9.938;2023-06-19T08:09:09;16.10;;;14.40;;
3022;SDS011;1521;53.584;9.938;2023-06-19T08:11:35;17.53;;;15.50;;
3022;SDS011;1521;53.584;9.938;2023-06-19T08:14:02;15.60;;;13.90;;
3022;SDS011;1521;53.584;9.938;2023-06-19T08:16:28;19.50;;;14.17;;
3022;SDS011;1521;53.584;9.938;2023-06-19T08:18:53;15.83;;;14.23;;
3022;SDS011;1521;53.584;9.938;2023-06-19T08:21:19;15.20;;;13.60;;
3022;SDS011;1521;53.584;9.938;2023-06-19T08:23:46;15.50;;;13.60;;
3022;SDS011;1521;53.584;9.938;2023-06-19T08:26:12;14.80;;;13.40;;
3022;SDS011;1521;53.584;9.938;2023-06-19T08:28:37;15.67;;;13.80;;
3022;SDS011;1521;53.584;9.938;2023-06-19T08:31:03;17.53;;;14.20;;
3022;SDS011;1521;53.584;9.938;2023-06-19T08:33:28;16.37;;;13.73;;
3022;SDS011;1521;53.584;9.938;2023-06-19T08:35:55;15.60;;;14.07;;
3022;SDS011;1521;53.584;9.938;2023-06-19T08:38:20;16.87;;;14.03;;
3022;SDS011;1521;53.584;9.938;2023-06-19T08:40:46;17.77;;;13.63;;
3022;SDS011;1521;53.584;9.938;2023-06-19T08:43:11;15.27;;;13.67;;
3022;SDS011;1521;53.584;9.938;2023-06-19T08:45:37;18.47;;;14.17;;
3022;SDS011;1521;53.584;9.938;2023-06-19T08:48:03;16.40;;;12.97;;
3022;SDS011;1521;53.584;9.938;2023-06-19T08:50:29;19.20;;;13.70;;
3022;SDS011;1521;53.584;9.938;2023-06-19T08:52:56;13.87;;;12.57;;
3022;SDS011;1521;53.584;9.938;2023-06-19T08:55:21;21.00;;;12.90;;
3022;SDS011;1521;53.584;9.938;2023-06-19T08:57:48;15.40;;;13.80;;
3022;SDS011;1521;53.584;9.938;2023-06-19T09:00:22;14.13;;;12.83;;
3022;SDS011;1521;53.584;9.938;2023-06-19T09:02:50;20.87;;;13.87;;
3022;SDS011;1521;53.584;9.938;2023-06-19T09:05:16;15.30;;;13.60;;
3022;SDS011;1521;53.584;9.938;2023-06-19T09:07:44;14.93;;;13.40;;
3022;SDS011;1521;53.584;9.938;2023-06-19T09:10:18;15.43;;;13.17;;
3022;SDS011;1521;53.584;9.938;2023-06-19T09:12:55;14.37;;;13.07;;
3022;SDS011;1521;53.584;9.938;2023-06-19T09:15:26;15.80;;;13.70;;
3022;SDS011;1521;53.584;9.938;2023-06-19T09:18:06;14.43;;;12.93;;
3022;SDS011;1521;53.584;9.938;2023-06-19T09:20:34;14.10;;;12.67;;
3022;SDS011;1521;53.584;9.938;2023-06-19T09:23:04;22.40;;;12.53;;
3022;SDS011;1521;53.584;9.938;2023-06-19T09:25:29;14.97;;;13.03;;
3022;SDS011;1521;53.584;9.938;2023-06-19T09:27:56;13.80;;;12.40;;
3022;SDS011;1521;53.584;9.938;2023-06-19T09:30:21;15.63;;;12.77;;
3022;SDS011;1521;53.584;9.938;2023-06-19T09:32:48;14.77;;;13.30;;
3022;SDS011;1521;53.584;9.938;2023-06-19T09:35:14;14.43;;;12.73;;
3022;SDS011;1521;53.584;9.938;2023-06-19T09:37:40;14.67;;;12.10;;
3022;SDS011;1521;53.584;9.938;2023-06-19T09:40:06;15.43;;;13.80;;
3022;SDS011;1521;53.584;9.938;2023-06-19T09:42:36;21.17;;;14.30;;
3022;SDS011;1521;53.584;9.938;2023-06-19T09:45:06;15.30;;;13.70;;
3022;SDS011;1521;53.584;9.938;2023-06-19T09:47:35;17.23;;;13.83;;
3022;SDS011;1521;53.584;9.938;2023-06-19T09:50:07;14.90;;;12.60;;
3022;SDS011;1521;53.584;9.938;2023-06-19T09:52:33;16.23;;;14.00;;
3022;SDS011;1521;53.584;9.938;2023-06-19T09:55:01;16.60;;;14.90;;
3022;SDS011;1521;53.584;9.938;2023-06-19T09:57:29;14.70;;;13.33;;
3022;SDS011;1521;53.584;9.938;2023-06-19T09:59:56;14.13;;;12.73;;
3022;SDS011;1521;53.584;9.938;2023-06-19T10:02:23;16.17;;;13.50;;
3022;SDS011;1521;53.584;9.938;2023-06-19T10:04:52;13.57;;;12.27;;
3022;SDS011;1521;53.584;9.938;2023-06-19T10:07:32;15.53;;;14.13;;
3022;SDS011;1521;53.584;9.938;2023-06-19T10:12:38;16.10;;;14.50;;
3022;SDS011;1521;53.584;9.938;2023-06-19T10:17:46;16.00;;;14.30;;
3022;SDS011;1521;53.584;9.938;2023-06-19T10:23:19;15.13;;;13.83;;
3022;SDS011;1521;53.584;9.938;2023-06-19T10:25:42;16.40;;;13.60;;
3022;SDS011;1521;53.584;9.938;2023-06-19T10:28:31;17.13;;;14.40;;
3022;SDS011;1521;53.584;9.938;2023-06-19T10:31:00;16.50;;;14.17;;
3022;SDS011;1521;53.584;9.938;2023-06-19T10:33:30;15.60;;;13.50;;
3022;SDS011;1521;53.584;9.938;2023-06-19T10:35:57;18.33;;;13.20;;
3022;SDS011;1521;53.584;9.938;2023-06-19T10:38:25;14.90;;;12.77;;
3022;SDS011;1521;53.584;9.938;2023-06-19T10:40:50;13.77;;;12.33;;
3022;SDS011;1521;53.584;9.938;2023-06-19T10:43:20;15.23;;;13.00;;
3022;SDS011;1521;53.584;9.938;2023-06-19T10:45:53;14.03;;;12.83;;
3022;SDS011;1521;53.584;9.938;2023-06-19T10:48:22;14.20;;;12.93;;
3022;SDS011;1521;53.584;9.938;2023-06-19T10:50:49;13.80;;;12.40;;
3022;SDS011;1521;53.584;9.938;2023-06-19T10:55:57;16.40;;;12.67;;
3022;SDS011;1521;53.584;9.938;2023-06-19T10:58:24;15.10;;;13.70;;
3022;SDS011;1521;53.584;9.938;2023-06-19T11:00:51;13.53;;;12.33;;
3022;SDS011;1521;53.584;9.938;2023-06-19T11:03:18;13.37;;;11.87;;
3022;SDS011;1521;53.584;9.938;2023-06-19T11:05:44;21.83;;;11.90;;
3022;SDS011;1521;53.584;9.938;2023-06-19T11:08:10;13.00;;;11.70;;
3022;SDS011;1521;53.584;9.938;2023-06-19T11:10:42;11.87;;;10.67;;
3022;SDS011;1521;53.584;9.938;2023-06-19T11:13:07;12.13;;;10.90;;
3022;SDS011;1521;53.584;9.938;2023-06-19T11:15:39;11.43;;;10.30;;
3022;SDS011;1521;53.584;9.938;2023-06-19T11:18:05;12.73;;;9.67;;
3022;SDS011;1521;53.584;9.938;2023-06-19T11:20:31;16.23;;;10.37;;
3022;SDS011;1521;53.584;9.938;2023-06-19T11:23:08;10.50;;;9.47;;
3022;SDS011;1521;53.584;9.938;2023-06-19T11:25:38;9.70;;;8.90;;
3022;SDS011;1521;53.584;9.938;2023-06-19T11:28:05;9.37;;;8.47;;
3022;SDS011;1521;53.584;9.938;2023-06-19T11:30:42;10.03;;;8.50;;
3022;SDS011;1521;53.584;9.938;2023-06-19T11:33:21;11.33;;;8.23;;
3022;SDS011;1521;53.584;9.938;2023-06-19T11:35:47;10.03;;;9.20;;
3022;SDS011;1521;53.584;9.938;2023-06-19T11:38:18;9.90;;;9.00;;
3022;SDS011;1521;53.584;9.938;2023-06-19T11:40:45;9.70;;;8.80;;
3022;SDS011;1521;53.584;9.938;2023-06-19T11:43:11;8.70;;;8.00;;
3022;SDS011;1521;53.584;9.938;2023-06-19T11:45:49;11.47;;;9.23;;
3022;SDS011;1521;53.584;9.938;2023-06-19T11:48:23;9.30;;;8.40;;
3022;SDS011;1521;53.584;9.938;2023-06-19T11:50:52;12.83;;;8.70;;
3022;SDS011;1521;53.584;9.938;2023-06-19T11:53:21;9.03;;;8.03;;
3022;SDS011;1521;53.584;9.938;2023-06-19T11:55:48;9.83;;;8.93;;
3022;SDS011;1521;53.584;9.938;2023-06-19T11:58:14;10.10;;;9.10;;
3022;SDS011;1521;53.584;9.938;2023-06-19T12:00:44;9.30;;;8.40;;
3022;SDS011;1521;53.584;9.938;2023-06-19T12:03:10;9.43;;;8.30;;
3022;SDS011;1521;53.584;9.938;2023-06-19T12:05:36;9.53;;;8.63;;
3022;SDS011;1521;53.584;9.938;2023-06-19T12:08:03;9.10;;;8.30;;
3022;SDS011;1521;53.584;9.938;2023-06-19T12:10:29;9.27;;;8.40;;
3022;SDS011;1521;53.584;9.938;2023-06-19T12:12:55;9.70;;;8.90;;
3022;SDS011;1521;53.584;9.938;2023-06-19T12:15:21;8.83;;;7.93;;
3022;SDS011;1521;53.584;9.938;2023-06-19T12:17:46;9.30;;;8.50;;
3022;SDS011;1521;53.584;9.938;2023-06-19T12:20:13;9.20;;;8.33;;
3022;SDS011;1521;53.584;9.938;2023-06-19T12:22:39;9.90;;;8.90;;
3022;SDS011;1521;53.584;9.938;2023-06-19T12:25:05;13.07;;;8.47;;
3022;SDS011;1521;53.584;9.938;2023-06-19T12:27:31;9.57;;;8.27;;
3022;SDS011;1521;53.584;9.938;2023-06-19T12:29:56;9.17;;;8.37;;
3022;SDS011;1521;53.584;9.938;2023-06-19T12:32:22;11.40;;;7.90;;
3022;SDS011;1521;53.584;9.938;2023-06-19T12:34:48;8.67;;;7.87;;
3022;SDS011;1521;53.584;9.938;2023-06-19T12:37:18;10.50;;;8.20;;
3022;SDS011;1521;53.584;9.938;2023-06-19T12:39:45;9.07;;;8.20;;
3022;SDS011;1521;53.584;9.938;2023-06-19T12:42:11;8.67;;;7.87;;
3022;SDS011;1521;53.584;9.938;2023-06-19T12:44:40;7.70;;;7.00;;
3022;SDS011;1521;53.584;9.938;2023-06-19T12:47:06;13.77;;;7.97;;
3022;SDS011;1521;53.584;9.938;2023-06-19T12:49:32;8.30;;;7.40;;
3022;SDS011;1521;53.584;9.938;2023-06-19T12:51:57;10.87;;;8.77;;
3022;SDS011;1521;53.584;9.938;2023-06-19T12:54:23;8.07;;;7.43;;
3022;SDS011;1521;53.584;9.938;2023-06-19T12:56:49;12.40;;;8.30;;
3022;SDS011;1521;53.584;9.938;2023-06-19T12:59:15;10.23;;;8.03;;
3022;SDS011;1521;53.584;9.938;2023-06-19T13:01:44;10.57;;;8.27;;
3022;SDS011;1521;53.584;9.938;2023-06-19T13:04:11;8.53;;;7.73;;
3022;SDS011;1521;53.584;9.938;2023-06-19T13:06:37;9.27;;;7.90;;
3022;SDS011;1521;53.584;9.938;2023-06-19T13:09:04;8.63;;;7.80;;
3022;SDS011;1521;53.584;9.938;2023-06-19T13:11:30;8.60;;;7.90;;
3022;SDS011;1521;53.584;9.938;2023-06-19T13:13:56;7.67;;;6.97;;
3022;SDS011;1521;53.584;9.938;2023-06-19T13:16:22;10.67;;;6.27;;
3022;SDS011;1521;53.584;9.938;2023-06-19T13:18:50;8.30;;;6.80;;
3022;SDS011;1521;53.584;9.938;2023-06-19T13:21:16;8.10;;;6.47;;
3022;SDS011;1521;53.584;9.938;2023-06-19T13:23:42;10.30;;;6.30;;
3022;SDS011;1521;53.584;9.938;2023-06-19T13:26:07;7.07;;;6.40;;
3022;SDS011;1521;53.584;9.938;2023-06-19T13:28:33;8.83;;;6.80;;
3022;SDS011;1521;53.584;9.938;2023-06-19T13:30:59;9.37;;;6.80;;
3022;SDS011;1521;53.584;9.938;2023-06-19T13:33:25;9.77;;;7.33;;
3022;SDS011;1521;53.584;9.938;2023-06-19T13:35:50;7.83;;;7.03;;
3022;SDS011;1521;53.584;9.938;2023-06-19T13:38:16;7.50;;;6.80;;
3022;SDS011;1521;53.584;9.938;2023-06-19T13:40:42;10.17;;;7.30;;
3022;SDS011;1521;53.584;9.938;2023-06-19T13:43:08;11.87;;;7.10;;
3022;SDS011;1521;53.584;9.938;2023-06-19T13:45:33;10.87;;;6.90;;
3022;SDS011;1521;53.584;9.938;2023-06-19T13:47:59;10.20;;;7.10;;
3022;SDS011;1521;53.584;9.938;2023-06-19T13:50:25;8.57;;;6.20;;
3022;SDS011;1521;53.584;9.938;2023-06-19T13:52:51;8.50;;;6.10;;
3022;SDS011;1521;53.584;9.938;2023-06-19T13:55:17;12.03;;;6.40;;
3022;SDS011;1521;53.584;9.938;2023-06-19T13:57:44;8.77;;;6.50;;
3022;SDS011;1521;53.584;9.938;2023-06-19T14:00:10;9.37;;;7.17;;
3022;SDS011;1521;53.584;9.938;2023-06-19T14:02:36;9.30;;;6.13;;
3022;SDS011;1521;53.584;9.938;2023-06-19T14:05:04;11.40;;;6.40;;
3022;SDS011;1521;53.584;9.938;2023-06-19T14:07:31;6.23;;;5.63;;
3022;SDS011;1521;53.584;9.938;2023-06-19T14:09:57;6.20;;;5.60;;
3022;SDS011;1521;53.584;9.938;2023-06-19T14:12:22;7.27;;;6.60;;
3022;SDS011;1521;53.584;9.938;2023-06-19T14:14:48;6.33;;;5.83;;
3022;SDS011;1521;53.584;9.938;2023-06-19T14:17:14;9.83;;;5.90;;
3022;SDS011;1521;53.584;9.938;2023-06-19T14:19:39;7.33;;;6.10;;
3022;SDS011;1521;53.584;9.938;2023-06-19T14:22:05;8.23;;;6.50;;
3022;SDS011;1521;53.584;9.938;2023-06-19T14:24:30;7.30;;;6.00;;
3022;SDS011;1521;53.584;9.938;2023-06-19T14:26:56;10.30;;;6.30;;
3022;SDS011;1521;53.584;9.938;2023-06-19T14:29:22;6.43;;;5.80;;
3022;SDS011;1521;53.584;9.938;2023-06-19T14:31:47;12.90;;;6.40;;
3022;SDS011;1521;53.584;9.938;2023-06-19T14:34:15;7.27;;;5.90;;
3022;SDS011;1521;53.584;9.938;2023-06-19T14:36:40;6.63;;;6.03;;
3022;SDS011;1521;53.584;9.938;2023-06-19T14:39:06;6.60;;;5.90;;
3022;SDS011;1521;53.584;9.938;2023-06-19T14:41:32;6.70;;;6.20;;
3022;SDS011;1521;53.584;9.938;2023-06-19T14:43:58;9.00;;;5.80;;
3022;SDS011;1521;53.584;9.938;2023-06-19T14:46:23;7.33;;;6.70;;
3022;SDS011;1521;53.584;9.938;2023-06-19T14:48:49;5.60;;;5.20;;
3022;SDS011;1521;53.584;9.938;2023-06-19T14:51:14;6.40;;;5.80;;
3022;SDS011;1521;53.584;9.938;2023-06-19T14:53:40;6.57;;;5.57;;
3022;SDS011;1521;53.584;9.938;2023-06-19T14:56:05;7.83;;;6.17;;
3022;SDS011;1521;53.584;9.938;2023-06-19T14:58:32;10.00;;;5.90;;
3022;SDS011;1521;53.584;9.938;2023-06-19T15:00:57;9.30;;;5.57;;
3022;SDS011;1521;53.584;9.938;2023-06-19T15:03:23;7.20;;;5.67;;
3022;SDS011;1521;53.584;9.938;2023-06-19T15:05:48;7.00;;;6.30;;